Time;durP1;ratioP1;P1;durP2;ratioP2;P2;SDS_P1;SDS_P2;PMS_P1;PMS_P2;Temp;Humidity;BMP_temperature;BMP_pressure;BME280_temperature;BME280_humidity;BME280_pressure;Samples;Min_cycle;Max_cycle;Signal;HPM_P1;HPM_P2
2022/06/12 00:01:21;;;;;;;1.20;0.38;;;17.60;62.60;;;;;;5087133;28;20062;-63
2022/06/12 00:03:48;;;;;;;0.47;0.40;;;17.50;62.60;;;;;;5099544;28;20092;-63
2022/06/12 00:06:14;;;;;;;0.40;0.30;;;17.50;62.80;;;;;;5076769;28;20360;-63
2022/06/12 00:08:40;;;;;;;0.50;0.50;;;17.40;62.90;;;;;;5079154;28;20059;-63
2022/06/12 00:11:09;;;;;;;0.32;0.32;;;17.30;63.00;;;;;;5089026;28;20032;-63
2022/06/12 00:13:43;;;;;;;0.50;0.50;;;17.30;63.10;;;;;;5089744;28;20024;-63
2022/06/12 00:16:10;;;;;;;1.05;0.50;;;17.20;63.10;;;;;;5095217;28;20105;-64
2022/06/12 00:18:36;;;;;;;1.20;0.60;;;17.20;63.30;;;;;;5089423;28;20039;-63
2022/06/12 00:21:11;;;;;;;0.73;0.52;;;17.10;63.30;;;;;;5087022;28;20028;-62
2022/06/12 00:23:47;;;;;;;3.80;0.60;;;17.10;63.40;;;;;;5086225;28;20033;-62
2022/06/12 00:26:17;;;;;;;1.00;0.75;;;17.00;63.50;;;;;;5104579;28;20032;-64
2022/06/12 00:28:42;;;;;;;0.38;0.38;;;17.00;63.60;;;;;;5078008;28;20016;-63
2022/06/12 00:31:08;;;;;;;1.05;0.55;;;16.90;63.70;;;;;;5087464;28;20028;-63
2022/06/12 00:33:34;;;;;;;0.85;0.38;;;16.90;63.70;;;;;;5084517;28;20024;-63
2022/06/12 00:36:00;;;;;;;0.30;0.30;;;16.90;63.80;;;;;;5086428;28;20550;-63
2022/06/12 00:38:26;;;;;;;0.95;0.50;;;16.80;63.80;;;;;;5080565;28;20075;-63
2022/06/12 00:40:52;;;;;;;0.98;0.50;;;16.80;63.90;;;;;;5080945;28;20059;-63
2022/06/12 00:43:17;;;;;;;0.30;0.30;;;16.70;63.90;;;;;;5087202;28;20032;-63
2022/06/12 00:45:54;;;;;;;2.00;0.50;;;16.70;63.90;;;;;;5094254;28;20549;-63
2022/06/12 00:48:24;;;;;;;0.63;0.63;;;16.60;64.00;;;;;;5080984;28;20368;-63
2022/06/12 00:51:17;;;;;;;0.52;0.50;;;16.60;64.10;;;;;;5086230;28;20048;-63
2022/06/12 00:53:56;;;;;;;0.20;0.20;;;16.60;64.20;;;;;;5082269;28;20489;-64
2022/06/12 00:56:27;;;;;;;0.65;0.50;;;16.50;64.30;;;;;;5088147;28;20031;-63
2022/06/12 00:58:56;;;;;;;2.17;0.88;;;16.50;64.40;;;;;;5071454;28;20111;-63
2022/06/12 01:01:27;;;;;;;0.30;0.30;;;16.40;64.40;;;;;;5078002;28;20417;-63
2022/06/12 01:06:49;;;;;;;0.38;0.38;;;16.40;64.50;;;;;;5075577;28;20045;-62
2022/06/12 01:09:22;;;;;;;0.40;0.40;;;16.30;64.60;;;;;;5076464;28;20028;-63
2022/06/12 01:11:50;;;;;;;1.48;0.77;;;16.30;64.60;;;;;;5081750;28;20033;-63
2022/06/12 01:14:20;;;;;;;2.22;0.50;;;16.20;64.70;;;;;;5078482;28;20563;-62
2022/06/12 01:16:48;;;;;;;0.20;0.20;;;16.20;64.90;;;;;;5077843;28;20028;-63
2022/06/12 01:19:32;;;;;;;0.85;0.45;;;16.20;64.90;;;;;;5071474;28;20036;-63
2022/06/12 01:22:00;;;;;;;0.82;0.50;;;16.20;65.00;;;;;;5093828;28;20020;-63
2022/06/12 01:24:48;;;;;;;0.35;0.30;;;16.10;65.00;;;;;;5088244;28;20035;-62
2022/06/12 01:27:39;;;;;;;0.43;0.43;;;16.10;65.10;;;;;;5086717;28;20107;-63
2022/06/12 01:30:20;;;;;;;0.52;0.30;;;16.10;65.30;;;;;;5078670;28;20040;-63
2022/06/12 01:33:13;;;;;;;0.38;0.38;;;16.00;65.40;;;;;;5070873;28;20016;-63
2022/06/12 01:35:47;;;;;;;0.60;0.60;;;16.00;65.50;;;;;;5083846;28;20025;-63
2022/06/12 01:39:01;;;;;;;0.40;0.40;;;15.90;65.60;;;;;;5090848;28;20114;-63
2022/06/12 01:41:36;;;;;;;0.70;0.45;;;15.90;65.60;;;;;;5072833;28;20054;-63
2022/06/12 01:44:35;;;;;;;0.65;0.30;;;15.80;65.70;;;;;;5079793;28;20058;-63
2022/06/12 01:47:14;;;;;;;1.10;0.40;;;15.80;65.70;;;;;;5085700;28;20514;-63
2022/06/12 01:49:53;;;;;;;0.52;0.40;;;15.80;65.80;;;;;;5072236;28;20496;-61
2022/06/12 01:52:45;;;;;;;1.27;0.63;;;15.80;65.90;;;;;;5089527;28;20024;-62
2022/06/12 01:55:32;;;;;;;1.13;0.50;;;15.80;66.00;;;;;;5078778;28;20043;-62
2022/06/12 01:58:06;;;;;;;1.95;0.93;;;15.70;66.10;;;;;;5081358;28;20286;-63
2022/06/12 02:00:32;;;;;;;0.93;0.50;;;15.70;66.20;;;;;;5098214;28;20031;-62
2022/06/12 02:03:06;;;;;;;0.30;0.30;;;15.60;66.20;;;;;;5095939;28;20054;-63
2022/06/12 02:05:47;;;;;;;0.60;0.43;;;15.60;66.30;;;;;;5084719;28;20058;-63
2022/06/12 02:08:43;;;;;;;4.60;0.50;;;15.60;66.40;;;;;;5086375;28;20024;-63
2022/06/12 02:14:02;;;;;;;0.50;0.50;;;15.60;66.60;;;;;;5102665;28;20100;-63
2022/06/12 02:16:39;;;;;;;0.40;0.30;;;15.50;66.70;;;;;;5081957;28;20028;-63
2022/06/12 02:19:13;;;;;;;0.73;0.50;;;15.50;66.70;;;;;;5081422;28;20020;-63
2022/06/12 02:22:05;;;;;;;0.28;0.28;;;15.50;66.80;;;;;;5091340;28;20390;-63
2022/06/12 02:24:41;;;;;;;0.47;0.40;;;15.50;66.80;;;;;;5087923;28;20815;-63
2022/06/12 02:27:23;;;;;;;1.23;0.50;;;15.40;66.90;;;;;;5077072;28;20073;-64
2022/06/12 02:29:58;;;;;;;0.65;0.47;;;15.40;67.00;;;;;;5079715;28;20028;-63
2022/06/12 02:32:31;;;;;;;0.40;0.40;;;15.40;67.20;;;;;;5090854;28;20494;-64
2022/06/12 02:35:20;;;;;;;0.70;0.60;;;15.40;67.20;;;;;;5086803;28;20031;-62
2022/06/12 02:37:51;;;;;;;0.57;0.57;;;15.40;67.30;;;;;;5077169;28;20024;-64
2022/06/12 02:40:55;;;;;;;0.63;0.63;;;15.40;67.50;;;;;;5086390;28;20016;-63
2022/06/12 02:43:27;;;;;;;0.45;0.45;;;15.40;67.40;;;;;;5036289;28;20037;-63
2022/06/12 02:46:05;;;;;;;0.57;0.57;;;15.30;67.50;;;;;;5087462;28;20037;-63
2022/06/12 02:48:32;;;;;;;0.65;0.35;;;15.30;67.70;;;;;;5083510;28;20145;-63
2022/06/12 02:51:12;;;;;;;2.00;0.73;;;15.30;67.80;;;;;;5091741;28;20496;-63
2022/06/12 02:53:49;;;;;;;0.65;0.63;;;15.20;67.80;;;;;;5089580;28;20067;-62
2022/06/12 02:56:56;;;;;;;2.72;0.52;;;15.30;67.90;;;;;;5099085;28;20415;-62
2022/06/12 02:59:50;;;;;;;2.38;0.70;;;15.30;68.00;;;;;;5085803;28;20051;-64
2022/06/12 03:02:28;;;;;;;5.28;0.70;;;15.20;68.20;;;;;;5084620;28;20043;-64
2022/06/12 03:05:22;;;;;;;0.60;0.60;;;15.20;68.20;;;;;;5090452;28;20435;-62
2022/06/12 03:08:06;;;;;;;0.60;0.40;;;15.10;68.30;;;;;;5084942;28;20039;-62
2022/06/12 03:10:37;;;;;;;0.40;0.40;;;15.20;68.50;;;;;;5090829;28;20028;-62
2022/06/12 03:13:07;;;;;;;0.95;0.60;;;15.10;68.40;;;;;;5091412;28;20025;-63
2022/06/12 03:15:42;;;;;;;1.27;0.65;;;15.10;68.50;;;;;;5090214;28;20143;-63
2022/06/12 03:18:12;;;;;;;1.65;0.75;;;15.20;68.60;;;;;;5077942;28;20089;-63
2022/06/12 03:21:02;;;;;;;0.47;0.45;;;15.10;68.60;;;;;;5087399;28;20024;-63
2022/06/12 03:23:46;;;;;;;1.10;0.63;;;15.10;68.70;;;;;;5082300;28;20028;-63
2022/06/12 03:26:32;;;;;;;0.73;0.63;;;15.20;68.90;;;;;;5081236;28;20024;-63
2022/06/12 03:29:21;;;;;;;1.92;0.98;;;15.20;69.00;;;;;;5089019;28;20016;-63
2022/06/12 03:32:19;;;;;;;0.60;0.60;;;15.10;69.00;;;;;;5088888;28;20478;-63
2022/06/12 03:35:10;;;;;;;1.55;0.90;;;15.10;69.20;;;;;;5062994;28;20723;-63
2022/06/12 03:37:51;;;;;;;0.40;0.40;;;15.10;69.30;;;;;;5071554;28;20043;-63
2022/06/12 03:40:26;;;;;;;0.80;0.55;;;15.10;69.40;;;;;;5086367;28;20035;-63
2022/06/12 03:43:05;;;;;;;0.73;0.60;;;15.10;69.40;;;;;;5082932;28;20032;-63
2022/06/12 03:45:48;;;;;;;1.75;0.40;;;15.10;69.50;;;;;;5071958;28;20430;-63
2022/06/12 03:48:25;;;;;;;3.53;0.85;;;15.20;69.50;;;;;;5072987;28;20020;-63
2022/06/12 03:51:09;;;;;;;0.82;0.80;;;15.20;69.50;;;;;;5077559;28;20028;-62
2022/06/12 03:53:39;;;;;;;1.95;0.88;;;15.20;69.50;;;;;;5085150;28;20081;-62
2022/06/12 03:59:20;;;;;;;2.38;0.52;;;15.30;69.70;;;;;;5075575;28;20925;-62
2022/06/12 04:01:47;;;;;;;7.00;0.80;;;15.30;70.10;;;;;;5086536;28;20451;-63
2022/06/12 04:04:15;;;;;;;0.70;0.50;;;15.30;70.50;;;;;;5086826;28;20040;-62
2022/06/12 04:06:42;;;;;;;1.48;0.73;;;15.40;70.00;;;;;;5077301;28;20026;-62
2022/06/12 04:09:15;;;;;;;1.05;0.70;;;15.40;70.10;;;;;;5085678;28;20470;-62
2022/06/12 04:11:42;;;;;;;2.08;0.90;;;15.40;70.20;;;;;;5081736;28;20481;-63
2022/06/12 04:14:15;;;;;;;0.95;0.80;;;15.40;70.30;;;;;;5088378;28;20110;-62
2022/06/12 04:16:46;;;;;;;1.02;0.65;;;15.50;70.50;;;;;;5094401;28;20058;-62
2022/06/12 04:19:16;;;;;;;1.17;0.95;;;15.60;70.60;;;;;;5084141;28;20020;-62
2022/06/12 04:21:59;;;;;;;2.47;0.77;;;15.70;70.50;;;;;;5083326;28;20473;-63
2022/06/12 04:24:36;;;;;;;1.52;0.70;;;15.80;70.40;;;;;;5071764;28;20042;-63
2022/06/12 04:27:07;;;;;;;1.55;0.98;;;15.90;70.40;;;;;;5093080;28;20060;-62
2022/06/12 04:29:38;;;;;;;2.83;1.17;;;16.00;70.60;;;;;;5081222;28;20032;-62
2022/06/12 04:32:06;;;;;;;1.77;0.82;;;16.10;70.60;;;;;;5083039;28;20064;-63
2022/06/12 04:34:38;;;;;;;2.08;0.73;;;16.20;70.50;;;;;;5086857;28;20115;-62
2022/06/12 04:37:17;;;;;;;1.58;1.10;;;16.30;70.30;;;;;;5086317;28;20034;-63
2022/06/12 04:39:44;;;;;;;3.28;1.25;;;16.40;70.50;;;;;;5086772;28;20024;-63
2022/06/12 04:42:13;;;;;;;2.47;0.98;;;16.40;70.40;;;;;;5080806;28;20024;-63
2022/06/12 04:44:38;;;;;;;3.70;1.00;;;16.50;70.50;;;;;;5081853;28;20028;-62
2022/06/12 04:47:05;;;;;;;2.28;0.77;;;16.60;70.50;;;;;;5087454;28;20020;-63
2022/06/12 04:49:34;;;;;;;1.90;0.80;;;16.70;70.40;;;;;;5066347;28;20062;-62
2022/06/12 04:52:03;;;;;;;3.92;1.17;;;16.80;70.30;;;;;;5073252;28;20025;-63
2022/06/12 04:54:30;;;;;;;0.40;0.40;;;16.80;70.30;;;;;;5083255;28;20064;-62
2022/06/12 04:56:56;;;;;;;3.22;0.65;;;16.90;70.10;;;;;;5087910;28;20024;-63
2022/06/12 04:59:22;;;;;;;1.98;0.90;;;16.90;70.10;;;;;;5086742;28;20047;-63
2022/06/12 05:01:48;;;;;;;2.10;0.55;;;16.90;70.20;;;;;;5067773;28;20374;-62
2022/06/12 05:04:15;;;;;;;1.95;0.77;;;17.00;70.70;;;;;;5079291;28;20040;-63
2022/06/12 05:06:44;;;;;;;1.95;1.08;;;17.10;69.90;;;;;;5073015;28;20059;-63
2022/06/12 05:09:12;;;;;;;2.08;1.08;;;17.10;69.90;;;;;;5079025;28;20103;-63
2022/06/12 05:11:39;;;;;;;1.95;0.70;;;17.20;69.70;;;;;;5081167;28;20465;-63
2022/06/12 05:14:05;;;;;;;3.05;0.90;;;17.20;69.60;;;;;;5087144;28;20060;-61
2022/06/12 05:16:37;;;;;;;1.98;0.70;;;17.30;69.50;;;;;;5092329;28;20084;-62
2022/06/12 05:19:06;;;;;;;6.80;1.38;;;17.30;69.60;;;;;;5083358;28;20021;-62
2022/06/12 05:21:33;;;;;;;3.80;1.30;;;17.30;69.60;;;;;;5071688;28;20135;-62
2022/06/12 05:24:00;;;;;;;1.25;1.00;;;17.30;69.90;;;;;;5097051;28;20382;-62
2022/06/12 05:26:26;;;;;;;1.83;1.02;;;17.30;69.90;;;;;;5104737;28;20493;-63
2022/06/12 05:28:53;;;;;;;1.20;1.10;;;17.40;70.00;;;;;;5083470;28;20027;-63
2022/06/12 05:31:19;;;;;;;1.02;0.60;;;17.40;70.20;;;;;;5072481;28;20537;-63
2022/06/12 05:33:45;;;;;;;1.35;1.15;;;17.50;70.00;;;;;;5079883;28;20028;-63
2022/06/12 05:36:13;;;;;;;1.52;1.00;;;17.50;69.70;;;;;;5077727;28;20032;-63
2022/06/12 05:38:40;;;;;;;4.32;0.90;;;17.60;69.70;;;;;;5091480;28;20032;-63
2022/06/12 05:41:06;;;;;;;1.95;1.00;;;17.70;69.60;;;;;;5073300;28;20046;-63
2022/06/12 05:43:32;;;;;;;4.95;1.48;;;17.80;69.40;;;;;;5084434;28;20086;-63
2022/06/12 05:45:57;;;;;;;4.80;1.33;;;17.90;69.40;;;;;;5079510;28;20025;-63
2022/06/12 05:48:23;;;;;;;3.83;1.23;;;17.90;69.30;;;;;;5092756;28;20139;-63
2022/06/12 05:50:55;;;;;;;0.93;0.80;;;17.90;69.60;;;;;;5088711;28;20024;-63
2022/06/12 05:53:24;;;;;;;1.38;0.98;;;17.90;69.70;;;;;;5071636;28;20032;-63
2022/06/12 05:55:50;;;;;;;6.00;1.45;;;17.90;69.70;;;;;;5086746;28;20162;-64
2022/06/12 05:58:16;;;;;;;3.22;1.05;;;18.00;69.80;;;;;;5082490;28;20174;-63
2022/06/12 06:00:42;;;;;;;1.25;1.00;;;18.00;69.70;;;;;;5081701;28;20107;-63
2022/06/12 06:03:08;;;;;;;5.25;1.92;;;18.00;70.00;;;;;;5080383;28;20052;-63
2022/06/12 06:05:38;;;;;;;2.83;1.70;;;18.10;70.20;;;;;;5086852;28;20031;-63
2022/06/12 06:08:05;;;;;;;3.90;1.48;;;18.10;70.40;;;;;;5079788;28;20058;-61
2022/06/12 06:10:30;;;;;;;1.20;1.00;;;18.10;70.50;;;;;;5085122;28;20051;-62
2022/06/12 06:12:56;;;;;;;2.65;1.40;;;18.10;70.40;;;;;;5085000;28;20062;-62
2022/06/12 06:15:23;;;;;;;1.83;1.10;;;18.30;70.50;;;;;;5082210;28;20040;-62
2022/06/12 06:17:49;;;;;;;3.70;1.17;;;18.30;70.40;;;;;;5087341;28;20032;-62
2022/06/12 06:20:22;;;;;;;2.17;1.15;;;18.40;70.20;;;;;;5076720;28;20152;-62
2022/06/12 06:22:49;;;;;;;4.63;1.63;;;18.50;70.10;;;;;;5085621;28;20047;-63
2022/06/12 06:25:15;;;;;;;2.92;1.35;;;18.50;69.90;;;;;;5082553;28;20024;-62
2022/06/12 06:27:41;;;;;;;7.63;1.35;;;18.60;69.70;;;;;;5084869;28;20023;-63
2022/06/12 06:30:07;;;;;;;4.53;1.17;;;18.70;69.70;;;;;;5087593;28;20029;-63
2022/06/12 06:32:33;;;;;;;3.15;1.52;;;18.90;69.50;;;;;;5088246;28;20077;-64
2022/06/12 06:35:00;;;;;;;2.00;1.65;;;19.00;69.30;;;;;;5086693;28;20040;-63
2022/06/12 06:37:25;;;;;;;2.92;1.25;;;18.90;70.00;;;;;;5087916;28;20040;-62
2022/06/12 06:39:51;;;;;;;3.10;1.33;;;18.90;69.50;;;;;;5088196;28;20557;-63
2022/06/12 06:42:17;;;;;;;5.20;2.08;;;19.00;69.60;;;;;;5087140;28;20024;-63
2022/06/12 06:47:28;;;;;;;6.50;1.70;;;19.00;69.50;;;;;;5088767;28;20059;-63
2022/06/12 06:49:53;;;;;;;5.32;1.88;;;18.90;69.70;;;;;;5078913;28;20024;-62
2022/06/12 06:52:19;;;;;;;1.25;0.95;;;18.90;69.90;;;;;;5079626;28;20020;-62
2022/06/12 06:54:45;;;;;;;2.25;1.33;;;19.00;70.00;;;;;;5087672;28;20044;-63
2022/06/12 06:57:12;;;;;;;3.53;1.20;;;19.10;69.90;;;;;;5091594;28;20032;-62
2022/06/12 06:59:39;;;;;;;3.35;1.40;;;19.20;69.60;;;;;;5086034;28;20051;-62
2022/06/12 07:02:05;;;;;;;2.38;1.20;;;19.30;69.40;;;;;;5080038;28;20036;-61
2022/06/12 07:04:30;;;;;;;5.03;2.65;;;19.40;68.80;;;;;;5083416;28;20127;-64
2022/06/12 07:06:56;;;;;;;4.95;1.30;;;19.40;68.60;;;;;;5073825;28;20109;-64
2022/06/12 07:09:22;;;;;;;2.22;1.10;;;19.50;68.60;;;;;;5078663;28;20031;-63
2022/06/12 07:11:47;;;;;;;3.65;2.13;;;19.60;68.10;;;;;;5078825;28;20028;-63
2022/06/12 07:14:13;;;;;;;5.45;1.63;;;19.60;67.90;;;;;;5069240;28;20099;-64
2022/06/12 07:16:40;;;;;;;3.85;1.30;;;19.70;67.80;;;;;;5079698;28;20119;-62
2022/06/12 07:19:06;;;;;;;2.50;1.15;;;19.80;67.60;;;;;;5080465;28;20039;-63
2022/06/12 07:21:32;;;;;;;2.60;1.58;;;19.90;67.70;;;;;;5087488;28;20036;-63
2022/06/12 07:23:58;;;;;;;4.07;1.48;;;20.00;67.50;;;;;;5079281;28;20127;-63
2022/06/12 07:26:31;;;;;;;2.25;1.20;;;20.10;67.30;;;;;;5081853;28;20033;-63
2022/06/12 07:28:58;;;;;;;4.35;1.42;;;20.20;67.10;;;;;;5073921;28;20028;-63
2022/06/12 07:31:24;;;;;;;1.38;1.20;;;20.30;66.90;;;;;;5071000;28;20131;-62
2022/06/12 07:33:50;;;;;;;2.88;1.13;;;20.40;66.70;;;;;;5085998;28;20111;-63
2022/06/12 07:36:17;;;;;;;2.83;1.50;;;20.50;66.50;;;;;;5089600;28;20071;-63
2022/06/12 07:38:46;;;;;;;2.13;1.20;;;20.70;66.30;;;;;;5084838;28;20092;-61
2022/06/12 07:41:12;;;;;;;6.05;1.30;;;20.80;66.10;;;;;;5084653;28;20020;-62
2022/06/12 07:43:40;;;;;;;3.67;1.15;;;20.80;65.30;;;;;;5081484;28;20429;-62
2022/06/12 07:46:09;;;;;;;2.80;1.25;;;20.80;65.60;;;;;;5081380;28;20115;-62
2022/06/12 07:48:36;;;;;;;1.15;0.80;;;20.90;65.60;;;;;;5087075;28;20032;-62
2022/06/12 07:51:05;;;;;;;3.60;1.73;;;21.00;65.50;;;;;;5082069;28;20376;-62
2022/06/12 07:53:31;;;;;;;2.60;1.20;;;21.10;65.40;;;;;;5072566;28;20024;-62
2022/06/12 07:55:58;;;;;;;6.82;1.67;;;21.10;65.30;;;;;;5079180;28;20412;-62
2022/06/12 07:58:24;;;;;;;1.50;1.08;;;21.20;65.30;;;;;;5077571;28;20032;-63
2022/06/12 08:00:58;;;;;;;5.70;1.10;;;21.40;64.90;;;;;;5084808;28;20076;-62
2022/06/12 08:03:24;;;;;;;4.25;1.48;;;21.40;64.60;;;;;;5088328;28;20202;-62
2022/06/12 08:05:50;;;;;;;1.63;0.90;;;21.50;64.20;;;;;;5087479;28;20459;-62
2022/06/12 08:08:16;;;;;;;1.48;0.95;;;21.60;63.50;;;;;;5088911;28;20054;-62
2022/06/12 08:10:41;;;;;;;1.02;0.65;;;21.70;63.00;;;;;;5083990;28;20039;-62
2022/06/12 08:13:10;;;;;;;1.02;0.70;;;21.80;62.50;;;;;;5080957;28;20031;-62
2022/06/12 08:15:38;;;;;;;2.72;0.70;;;22.00;62.20;;;;;;5084848;28;20467;-62
2022/06/12 08:18:04;;;;;;;3.20;0.85;;;22.00;61.20;;;;;;5086349;28;20020;-63
2022/06/12 08:20:32;;;;;;;1.52;0.75;;;22.10;60.90;;;;;;5082302;28;20443;-62
2022/06/12 08:23:03;;;;;;;3.47;1.25;;;22.10;60.80;;;;;;5083516;28;20050;-62
2022/06/12 08:25:31;;;;;;;1.15;0.90;;;22.10;61.00;;;;;;5086068;28;20082;-62
2022/06/12 08:27:58;;;;;;;1.77;0.80;;;22.20;61.20;;;;;;5084282;28;20034;-63
2022/06/12 08:30:24;;;;;;;1.75;0.95;;;22.20;61.00;;;;;;5076127;28;20438;-63
2022/06/12 08:32:52;;;;;;;1.90;1.10;;;22.20;60.50;;;;;;5080079;28;20028;-63
2022/06/12 08:35:31;;;;;;;2.08;1.05;;;22.10;60.10;;;;;;5082555;28;20036;-64
2022/06/12 08:37:57;;;;;;;0.77;0.73;;;22.10;60.60;;;;;;5078068;28;20051;-62
2022/06/12 08:40:40;;;;;;;1.67;0.80;;;22.10;60.90;;;;;;5069125;28;20025;-62
2022/06/12 08:43:45;;;;;;;2.67;0.80;;;22.20;61.00;;;;;;5081614;28;20024;-63
2022/06/12 08:46:22;;;;;;;1.42;0.88;;;22.40;60.80;;;;;;5070834;28;20028;-62
2022/06/12 08:49:07;;;;;;;3.65;1.15;;;22.60;60.20;;;;;;5082532;28;20087;-64
2022/06/12 08:52:34;;;;;;;2.05;1.33;;;22.70;59.10;;;;;;5074579;28;20394;-62
2022/06/12 08:55:28;;;;;;;1.42;0.88;;;22.60;58.80;;;;;;5049941;28;20065;-63
2022/06/12 08:58:02;;;;;;;1.02;0.90;;;22.60;58.60;;;;;;5071613;28;20064;-63
2022/06/12 09:00:32;;;;;;;1.92;1.10;;;22.50;58.90;;;;;;5078907;28;20025;-63
2022/06/12 09:02:59;;;;;;;1.90;1.10;;;22.60;58.80;;;;;;5086048;28;20046;-63
2022/06/12 09:05:35;;;;;;;0.73;0.70;;;22.60;59.00;;;;;;5070156;28;20869;-63
2022/06/12 09:08:16;;;;;;;0.93;0.75;;;22.60;58.40;;;;;;5072406;28;20034;-63
2022/06/12 09:10:53;;;;;;;0.90;0.70;;;22.60;56.30;;;;;;5090868;28;20203;-63
2022/06/12 09:13:39;;;;;;;1.75;0.90;;;22.50;55.70;;;;;;5074368;28;20032;-63
2022/06/12 09:16:13;;;;;;;3.40;1.35;;;22.50;56.20;;;;;;5085888;28;20035;-63
2022/06/12 09:19:06;;;;;;;2.00;0.88;;;22.60;55.80;;;;;;5075077;28;20130;-63
2022/06/12 09:21:45;;;;;;;1.13;1.02;;;22.70;55.20;;;;;;5093547;28;20055;-62
2022/06/12 09:24:18;;;;;;;2.15;0.73;;;22.80;55.10;;;;;;5079373;28;20142;-62
2022/06/12 09:27:01;;;;;;;0.77;0.75;;;22.90;55.30;;;;;;5069032;28;20024;-63
2022/06/12 09:29:53;;;;;;;0.40;0.40;;;23.10;55.00;;;;;;5077975;28;20090;-62
2022/06/12 09:32:24;;;;;;;1.17;0.93;;;23.30;54.80;;;;;;5081484;28;20115;-63
2022/06/12 09:35:26;;;;;;;2.00;0.80;;;23.40;54.20;;;;;;5067599;28;20107;-63
2022/06/12 09:38:26;;;;;;;0.65;0.63;;;23.40;53.10;;;;;;5070127;28;20032;-62
2022/06/12 09:41:17;;;;;;;0.80;0.60;;;23.60;52.00;;;;;;5065753;28;20093;-63
2022/06/12 09:44:03;;;;;;;3.22;0.52;;;23.60;51.70;;;;;;5064598;28;20333;-63
2022/06/12 09:46:53;;;;;;;0.85;0.60;;;23.70;51.70;;;;;;5076532;28;20469;-63
2022/06/12 09:49:52;;;;;;;0.95;0.65;;;23.90;50.80;;;;;;5077568;28;20074;-63
2022/06/12 09:52:49;;;;;;;0.98;0.77;;;23.80;48.20;;;;;;5083195;28;20024;-63
2022/06/12 09:55:33;;;;;;;0.70;0.52;;;23.60;49.70;;;;;;5076284;28;20047;-63
2022/06/12 09:58:16;;;;;;;1.25;0.90;;;23.50;51.00;;;;;;5071896;28;20075;-63
2022/06/12 10:00:51;;;;;;;1.25;0.68;;;23.60;51.10;;;;;;5090470;28;20032;-62
2022/06/12 10:04:00;;;;;;;0.50;0.50;;;23.80;51.40;;;;;;5077120;28;20130;-63
2022/06/12 10:06:38;;;;;;;2.20;1.02;;;24.00;50.60;;;;;;5056935;28;20058;-63
2022/06/12 10:09:17;;;;;;;1.95;0.98;;;24.10;49.50;;;;;;5080745;28;20008;-63
2022/06/12 10:11:43;;;;;;;1.42;0.60;;;24.20;50.30;;;;;;5092196;28;20043;-61
2022/06/12 10:14:26;;;;;;;1.63;1.20;;;24.40;49.20;;;;;;5078086;28;20387;-62
2022/06/12 10:16:54;;;;;;;1.92;0.85;;;24.50;49.00;;;;;;5076866;28;20136;-62
2022/06/12 10:19:32;;;;;;;0.98;0.90;;;24.50;49.20;;;;;;5079771;28;20052;-63
2022/06/12 10:22:03;;;;;;;1.40;0.77;;;24.60;49.80;;;;;;5080192;28;20035;-62
2022/06/12 10:24:29;;;;;;;2.30;0.98;;;24.70;49.50;;;;;;5083043;28;20034;-63
2022/06/12 10:27:07;;;;;;;1.20;0.77;;;24.80;49.50;;;;;;5088203;28;20032;-63
2022/06/12 10:29:48;;;;;;;3.83;1.10;;;24.70;49.10;;;;;;5080893;28;20024;-62
2022/06/12 10:32:17;;;;;;;0.75;0.68;;;24.60;49.30;;;;;;5084488;28;20020;-63
2022/06/12 10:34:43;;;;;;;0.88;0.80;;;24.50;50.00;;;;;;5077349;28;20029;-62
2022/06/12 10:37:17;;;;;;;2.65;0.73;;;24.40;50.40;;;;;;5074349;28;20033;-62
2022/06/12 10:39:43;;;;;;;1.85;0.95;;;24.20;51.00;;;;;;5070255;28;20020;-62
2022/06/12 10:42:32;;;;;;;2.45;0.88;;;24.10;51.20;;;;;;5086868;28;20506;-63
2022/06/12 10:44:59;;;;;;;1.05;0.93;;;23.80;51.70;;;;;;5087138;28;20126;-62
2022/06/12 10:47:29;;;;;;;1.75;0.60;;;23.80;52.10;;;;;;5094327;28;20024;-61
2022/06/12 10:50:20;;;;;;;3.50;0.85;;;23.80;52.20;;;;;;5085363;28;20154;-62
2022/06/12 10:52:59;;;;;;;0.70;0.70;;;23.80;51.70;;;;;;5089544;28;20392;-62
2022/06/12 10:55:42;;;;;;;1.45;0.80;;;23.70;52.10;;;;;;5073980;28;20100;-63
2022/06/12 10:58:45;;;;;;;0.75;0.60;;;23.70;52.50;;;;;;5084367;28;20024;-62
2022/06/12 11:01:49;;;;;;;0.85;0.77;;;23.70;52.40;;;;;;5074609;28;20474;-63
2022/06/12 11:04:41;;;;;;;1.35;0.93;;;23.60;53.40;;;;;;5071800;28;20578;-62
2022/06/12 11:07:28;;;;;;;1.03;1.03;;;23.80;53.00;;;;;;5074670;28;20032;-63
2022/06/12 11:10:05;;;;;;;3.75;1.20;;;23.90;52.50;;;;;;5068264;28;20020;-63
2022/06/12 11:13:22;;;;;;;2.53;1.00;;;23.80;52.80;;;;;;5071047;28;20056;-62
2022/06/12 11:16:10;;;;;;;0.88;0.82;;;23.70;53.00;;;;;;5074791;28;20252;-63
2022/06/12 11:18:39;;;;;;;1.88;1.17;;;23.60;53.00;;;;;;5069865;28;20028;-62
2022/06/12 11:21:11;;;;;;;3.88;1.05;;;23.50;53.30;;;;;;5075939;28;20044;-61
2022/06/12 11:23:57;;;;;;;0.98;0.90;;;23.60;53.10;;;;;;5070922;28;20032;-61
2022/06/12 11:26:32;;;;;;;5.57;1.13;;;23.70;53.10;;;;;;5074372;28;20561;-62
2022/06/12 11:29:00;;;;;;;0.70;0.70;;;23.90;52.90;;;;;;5067503;28;20035;-64
2022/06/12 11:32:02;;;;;;;1.35;0.90;;;23.90;52.40;;;;;;5071947;28;20510;-62
2022/06/12 11:35:01;;;;;;;2.17;1.00;;;23.70;52.40;;;;;;5080713;28;20031;-63
2022/06/12 11:38:14;;;;;;;3.08;1.02;;;23.50;52.90;;;;;;5081936;28;20142;-63
2022/06/12 11:41:02;;;;;;;0.75;0.75;;;23.50;53.00;;;;;;5086594;27;20193;-63
2022/06/12 11:43:44;;;;;;;1.50;0.90;;;23.80;52.40;;;;;;5076614;28;20036;-63
2022/06/12 11:46:20;;;;;;;;;;;24.00;52.20;;;;;;5080315;28;20239;-63
2022/06/12 11:49:13;;;;;;;1.23;1.08;;;24.20;51.20;;;;;;5083132;28;20018;-63
2022/06/12 11:52:16;;;;;;;1.10;0.90;;;24.50;50.00;;;;;;5071565;28;20021;-63
2022/06/12 11:54:58;;;;;;;0.80;0.80;;;24.60;49.00;;;;;;5076617;28;20251;-63
2022/06/12 11:57:23;;;;;;;;;;;24.70;48.30;;;;;;5082562;28;20028;-61
2022/06/12 11:59:55;;;;;;;0.47;0.47;;;25.00;47.80;;;;;;5082775;28;20430;-64
2022/06/12 12:02:29;;;;;;;1.20;0.82;;;25.20;47.50;;;;;;5082482;28;20036;-63
2022/06/12 12:05:32;;;;;;;4.03;1.15;;;25.40;47.40;;;;;;5085782;28;20111;-64
2022/06/12 12:08:11;;;;;;;0.85;0.80;;;25.60;47.30;;;;;;5077319;28;20024;-64
2022/06/12 12:10:54;;;;;;;0.95;0.73;;;25.90;46.60;;;;;;5068699;28;20102;-64
2022/06/12 12:13:52;;;;;;;2.42;1.02;;;26.20;46.10;;;;;;5072303;28;20017;-64
2022/06/12 12:16:24;;;;;;;1.10;0.68;;;26.20;43.90;;;;;;5059528;28;20048;-63
2022/06/12 12:18:56;;;;;;;3.08;1.30;;;26.20;44.50;;;;;;5067410;28;20373;-63
2022/06/12 12:21:35;;;;;;;0.75;0.75;;;26.30;44.00;;;;;;5067025;28;20329;-63
2022/06/12 12:24:04;;;;;;;1.05;0.85;;;26.50;44.40;;;;;;5067636;28;20581;-64
2022/06/12 12:26:37;;;;;;;1.08;0.65;;;26.60;43.00;;;;;;5071400;28;20032;-63
2022/06/12 12:29:09;;;;;;;2.22;0.70;;;26.60;42.50;;;;;;5067712;28;20040;-63
2022/06/12 12:31:37;;;;;;;1.17;0.60;;;26.30;42.40;;;;;;5071696;28;20095;-63
2022/06/12 12:34:06;;;;;;;0.60;0.60;;;26.20;43.00;;;;;;5064635;28;20039;-64
2022/06/12 12:42:35;;;;;;;0.70;0.60;;;25.70;42.30;;;;;;5070711;28;20115;-63
2022/06/12 12:45:22;;;;;;;3.47;1.05;;;25.60;42.70;;;;;;5078045;28;20024;-63
2022/06/12 12:48:02;;;;;;;0.80;0.80;;;25.70;42.70;;;;;;5098747;28;20025;-63
2022/06/12 12:50:40;;;;;;;0.50;0.50;;;25.60;42.60;;;;;;5088203;28;20035;-63
2022/06/12 12:53:06;;;;;;;0.40;0.40;;;25.70;43.00;;;;;;5077166;28;20024;-62
2022/06/12 12:55:42;;;;;;;1.52;0.55;;;25.90;41.60;;;;;;5088117;28;20024;-62
2022/06/12 12:58:36;;;;;;;2.15;1.33;;;25.90;41.70;;;;;;5083248;28;20017;-63
2022/06/12 13:01:21;;;;;;;1.73;1.10;;;25.90;41.10;;;;;;5077766;28;20521;-63
2022/06/12 13:03:56;;;;;;;0.57;0.57;;;25.80;41.10;;;;;;5082841;28;20058;-63
2022/06/12 13:06:36;;;;;;;2.13;0.88;;;25.80;41.30;;;;;;5085485;28;20050;-61
2022/06/12 13:09:41;;;;;;;0.50;0.50;;;25.80;39.70;;;;;;5075411;28;20035;-62
2022/06/12 13:12:15;;;;;;;0.68;0.68;;;25.80;40.70;;;;;;5082862;28;20024;-63
2022/06/12 13:15:03;;;;;;;0.50;0.50;;;25.90;41.10;;;;;;5080205;28;20510;-63
2022/06/12 13:17:49;;;;;;;1.00;0.90;;;26.00;41.30;;;;;;5065499;28;20036;-64
2022/06/12 13:20:57;;;;;;;0.60;0.60;;;26.20;38.90;;;;;;5065603;28;20031;-63
2022/06/12 13:23:55;;;;;;;0.85;0.55;;;26.30;40.00;;;;;;5068557;28;20032;-63
2022/06/12 13:26:23;;;;;;;0.50;0.40;;;26.50;38.80;;;;;;5069162;28;20017;-64
2022/06/12 13:29:04;;;;;;;0.32;0.30;;;26.50;37.60;;;;;;5068459;28;20524;-63
2022/06/12 13:31:33;;;;;;;0.57;0.57;;;26.50;37.90;;;;;;5079707;28;20024;-63
2022/06/12 13:34:01;;;;;;;0.60;0.60;;;26.50;37.30;;;;;;5073559;28;20036;-63
2022/06/12 13:36:39;;;;;;;0.50;0.50;;;26.50;37.20;;;;;;5077237;28;21990;-63
2022/06/12 13:39:17;;;;;;;4.57;0.47;;;26.30;37.00;;;;;;5083977;28;20097;-63
2022/06/12 13:42:01;;;;;;;1.85;0.30;;;26.40;37.10;;;;;;5089750;28;20032;-63
2022/06/12 13:44:42;;;;;;;0.43;0.43;;;26.40;36.90;;;;;;5090216;28;20558;-64
2022/06/12 13:47:24;;;;;;;1.10;0.88;;;26.50;38.30;;;;;;5091060;28;20363;-65
2022/06/12 13:50:30;;;;;;;1.27;0.75;;;26.60;37.90;;;;;;5082997;28;20353;-64